sensor_id;sensor_type;location;lat;lon;timestamp;P1;durP1;ratioP1;P2;durP2;ratioP2
67696;SDS011;54486;51.442;6.778;2024-02-28T00:00:52;19.38;;;10.18;;
67696;SDS011;54486;51.442;6.778;2024-02-28T00:03:20;20.35;;;10.40;;
67696;SDS011;54486;51.442;6.778;2024-02-28T00:05:48;21.60;;;11.40;;
67696;SDS011;54486;51.442;6.778;2024-02-28T00:08:16;20.70;;;10.50;;
67696;SDS011;54486;51.442;6.778;2024-02-28T00:10:45;19.83;;;10.95;;
67696;SDS011;54486;51.442;6.778;2024-02-28T00:13:14;20.80;;;11.27;;
67696;SDS011;54486;51.442;6.778;2024-02-28T00:15:43;20.15;;;10.82;;
67696;SDS011;54486;51.442;6.778;2024-02-28T00:18:11;21.27;;;11.38;;
67696;SDS011;54486;51.442;6.778;2024-02-28T00:20:39;21.15;;;10.48;;
67696;SDS011;54486;51.442;6.778;2024-02-28T00:23:06;22.13;;;10.85;;
67696;SDS011;54486;51.442;6.778;2024-02-28T00:25:35;20.17;;;10.65;;
67696;SDS011;54486;51.442;6.778;2024-02-28T00:28:02;22.00;;;11.63;;
67696;SDS011;54486;51.442;6.778;2024-02-28T00:30:30;21.67;;;11.48;;
67696;SDS011;54486;51.442;6.778;2024-02-28T00:33:00;21.63;;;10.65;;
67696;SDS011;54486;51.442;6.778;2024-02-28T00:35:28;21.85;;;10.60;;
67696;SDS011;54486;51.442;6.778;2024-02-28T00:37:59;20.10;;;11.27;;
67696;SDS011;54486;51.442;6.778;2024-02-28T00:40:27;23.35;;;11.80;;
67696;SDS011;54486;51.442;6.778;2024-02-28T00:42:56;20.75;;;11.05;;
67696;SDS011;54486;51.442;6.778;2024-02-28T00:45:24;20.65;;;11.07;;
67696;SDS011;54486;51.442;6.778;2024-02-28T00:47:52;22.98;;;11.52;;
67696;SDS011;54486;51.442;6.778;2024-02-28T00:50:21;20.45;;;11.23;;
67696;SDS011;54486;51.442;6.778;2024-02-28T00:52:48;21.30;;;11.32;;
67696;SDS011;54486;51.442;6.778;2024-02-28T00:55:16;21.45;;;11.48;;
67696;SDS011;54486;51.442;6.778;2024-02-28T00:57:43;20.85;;;10.90;;
67696;SDS011;54486;51.442;6.778;2024-02-28T01:00:10;21.30;;;10.73;;
67696;SDS011;54486;51.442;6.778;2024-02-28T01:02:39;21.25;;;11.05;;
67696;SDS011;54486;51.442;6.778;2024-02-28T01:05:08;22.48;;;11.23;;
67696;SDS011;54486;51.442;6.778;2024-02-28T01:07:36;21.30;;;11.25;;
67696;SDS011;54486;51.442;6.778;2024-02-28T01:10:03;23.15;;;11.52;;
67696;SDS011;54486;51.442;6.778;2024-02-28T01:12:31;20.98;;;11.20;;
67696;SDS011;54486;51.442;6.778;2024-02-28T01:14:58;21.05;;;10.93;;
67696;SDS011;54486;51.442;6.778;2024-02-28T01:17:25;21.00;;;11.10;;
67696;SDS011;54486;51.442;6.778;2024-02-28T01:19:52;23.77;;;11.43;;
67696;SDS011;54486;51.442;6.778;2024-02-28T01:22:19;23.75;;;11.48;;
67696;SDS011;54486;51.442;6.778;2024-02-28T01:24:46;21.83;;;10.95;;
67696;SDS011;54486;51.442;6.778;2024-02-28T01:27:13;22.77;;;11.50;;
67696;SDS011;54486;51.442;6.778;2024-02-28T01:29:41;21.92;;;11.32;;
67696;SDS011;54486;51.442;6.778;2024-02-28T01:32:08;22.17;;;11.00;;
67696;SDS011;54486;51.442;6.778;2024-02-28T01:34:35;21.73;;;11.30;;
67696;SDS011;54486;51.442;6.778;2024-02-28T01:37:02;23.42;;;11.25;;
67696;SDS011;54486;51.442;6.778;2024-02-28T01:39:30;22.50;;;11.25;;
67696;SDS011;54486;51.442;6.778;2024-02-28T01:41:57;22.52;;;11.52;;
67696;SDS011;54486;51.442;6.778;2024-02-28T01:44:24;24.90;;;11.45;;
67696;SDS011;54486;51.442;6.778;2024-02-28T01:46:51;26.55;;;12.68;;
67696;SDS011;54486;51.442;6.778;2024-02-28T01:49:21;24.63;;;12.82;;
67696;SDS011;54486;51.442;6.778;2024-02-28T01:51:49;25.10;;;12.90;;
67696;SDS011;54486;51.442;6.778;2024-02-28T01:54:17;25.95;;;13.25;;
67696;SDS011;54486;51.442;6.778;2024-02-28T01:56:44;26.02;;;12.68;;
67696;SDS011;54486;51.442;6.778;2024-02-28T01:59:13;26.42;;;12.93;;
67696;SDS011;54486;51.442;6.778;2024-02-28T02:01:40;25.03;;;13.03;;
67696;SDS011;54486;51.442;6.778;2024-02-28T02:04:08;26.63;;;12.07;;
67696;SDS011;54486;51.442;6.778;2024-02-28T02:06:36;26.10;;;12.85;;
67696;SDS011;54486;51.442;6.778;2024-02-28T02:09:08;26.20;;;12.20;;
67696;SDS011;54486;51.442;6.778;2024-02-28T02:11:37;24.60;;;12.52;;
67696;SDS011;54486;51.442;6.778;2024-02-28T02:14:06;25.15;;;11.88;;
67696;SDS011;54486;51.442;6.778;2024-02-28T02:16:33;23.13;;;11.65;;
67696;SDS011;54486;51.442;6.778;2024-02-28T02:19:01;24.33;;;11.83;;
67696;SDS011;54486;51.442;6.778;2024-02-28T02:21:31;24.33;;;11.70;;
67696;SDS011;54486;51.442;6.778;2024-02-28T02:24:21;22.73;;;11.30;;
67696;SDS011;54486;51.442;6.778;2024-02-28T02:26:48;22.60;;;11.55;;
67696;SDS011;54486;51.442;6.778;2024-02-28T02:29:18;22.13;;;10.93;;
67696;SDS011;54486;51.442;6.778;2024-02-28T02:31:44;22.80;;;11.47;;
67696;SDS011;54486;51.442;6.778;2024-02-28T02:34:11;24.00;;;11.60;;
67696;SDS011;54486;51.442;6.778;2024-02-28T02:36:40;21.70;;;11.60;;
67696;SDS011;54486;51.442;6.778;2024-02-28T02:39:07;21.88;;;10.80;;
67696;SDS011;54486;51.442;6.778;2024-02-28T02:41:35;22.55;;;11.73;;
67696;SDS011;54486;51.442;6.778;2024-02-28T02:44:03;22.90;;;11.60;;
67696;SDS011;54486;51.442;6.778;2024-02-28T02:46:30;22.23;;;11.32;;
67696;SDS011;54486;51.442;6.778;2024-02-28T02:48:57;22.08;;;11.23;;
67696;SDS011;54486;51.442;6.778;2024-02-28T02:51:25;21.33;;;10.68;;
67696;SDS011;54486;51.442;6.778;2024-02-28T02:53:52;21.30;;;11.10;;
67696;SDS011;54486;51.442;6.778;2024-02-28T02:56:20;21.80;;;11.00;;
67696;SDS011;54486;51.442;6.778;2024-02-28T02:58:48;21.63;;;11.15;;
67696;SDS011;54486;51.442;6.778;2024-02-28T03:01:15;21.92;;;11.57;;
67696;SDS011;54486;51.442;6.778;2024-02-28T03:03:43;22.40;;;12.20;;
67696;SDS011;54486;51.442;6.778;2024-02-28T03:06:10;24.03;;;11.57;;
67696;SDS011;54486;51.442;6.778;2024-02-28T03:08:37;21.52;;;11.05;;
67696;SDS011;54486;51.442;6.778;2024-02-28T03:11:04;21.45;;;11.05;;
67696;SDS011;54486;51.442;6.778;2024-02-28T03:13:34;23.60;;;12.60;;
67696;SDS011;54486;51.442;6.778;2024-02-28T03:16:03;22.75;;;11.55;;
67696;SDS011;54486;51.442;6.778;2024-02-28T03:18:31;22.10;;;11.98;;
67696;SDS011;54486;51.442;6.778;2024-02-28T03:20:59;24.95;;;12.73;;
67696;SDS011;54486;51.442;6.778;2024-02-28T03:23:26;23.83;;;11.98;;
67696;SDS011;54486;51.442;6.778;2024-02-28T03:25:53;24.87;;;12.17;;
67696;SDS011;54486;51.442;6.778;2024-02-28T03:28:23;24.17;;;12.07;;
67696;SDS011;54486;51.442;6.778;2024-02-28T03:30:50;24.38;;;12.32;;
67696;SDS011;54486;51.442;6.778;2024-02-28T03:33:17;25.85;;;12.63;;
67696;SDS011;54486;51.442;6.778;2024-02-28T03:35:45;28.00;;;13.13;;
67696;SDS011;54486;51.442;6.778;2024-02-28T03:38:12;24.85;;;12.50;;
67696;SDS011;54486;51.442;6.778;2024-02-28T03:40:40;30.00;;;14.43;;
67696;SDS011;54486;51.442;6.778;2024-02-28T03:43:07;29.60;;;13.77;;
67696;SDS011;54486;51.442;6.778;2024-02-28T03:45:38;31.35;;;15.23;;
67696;SDS011;54486;51.442;6.778;2024-02-28T03:48:06;30.83;;;14.20;;
67696;SDS011;54486;51.442;6.778;2024-02-28T03:50:33;28.83;;;14.00;;
67696;SDS011;54486;51.442;6.778;2024-02-28T03:53:01;31.67;;;14.80;;
67696;SDS011;54486;51.442;6.778;2024-02-28T03:55:29;32.90;;;14.27;;
67696;SDS011;54486;51.442;6.778;2024-02-28T03:57:57;31.33;;;15.40;;
67696;SDS011;54486;51.442;6.778;2024-02-28T04:00:26;33.00;;;16.10;;
67696;SDS011;54486;51.442;6.778;2024-02-28T04:02:53;33.60;;;16.10;;
67696;SDS011;54486;51.442;6.778;2024-02-28T04:05:20;33.85;;;17.30;;
67696;SDS011;54486;51.442;6.778;2024-02-28T04:07:47;34.15;;;15.85;;
67696;SDS011;54486;51.442;6.778;2024-02-28T04:10:14;33.53;;;16.83;;
67696;SDS011;54486;51.442;6.778;2024-02-28T04:12:42;36.13;;;17.90;;
67696;SDS011;54486;51.442;6.778;2024-02-28T04:15:11;37.33;;;18.70;;
67696;SDS011;54486;51.442;6.778;2024-02-28T04:17:42;35.95;;;17.35;;
67696;SDS011;54486;51.442;6.778;2024-02-28T04:20:12;38.67;;;18.85;;
67696;SDS011;54486;51.442;6.778;2024-02-28T04:22:40;36.75;;;18.65;;
67696;SDS011;54486;51.442;6.778;2024-02-28T04:25:08;39.00;;;17.75;;
67696;SDS011;54486;51.442;6.778;2024-02-28T04:27:35;38.23;;;18.40;;
67696;SDS011;54486;51.442;6.778;2024-02-28T04:30:04;37.92;;;17.80;;
67696;SDS011;54486;51.442;6.778;2024-02-28T04:32:31;38.27;;;18.70;;
67696;SDS011;54486;51.442;6.778;2024-02-28T04:34:59;42.80;;;19.02;;
67696;SDS011;54486;51.442;6.778;2024-02-28T04:37:27;44.17;;;19.52;;
67696;SDS011;54486;51.442;6.778;2024-02-28T04:39:55;43.80;;;19.90;;
67696;SDS011;54486;51.442;6.778;2024-02-28T04:42:22;45.05;;;19.33;;
67696;SDS011;54486;51.442;6.778;2024-02-28T04:44:49;44.57;;;21.33;;
67696;SDS011;54486;51.442;6.778;2024-02-28T04:47:16;45.33;;;19.73;;
67696;SDS011;54486;51.442;6.778;2024-02-28T04:49:47;44.58;;;20.65;;
67696;SDS011;54486;51.442;6.778;2024-02-28T04:52:14;45.05;;;20.33;;
67696;SDS011;54486;51.442;6.778;2024-02-28T04:54:41;45.10;;;21.15;;
67696;SDS011;54486;51.442;6.778;2024-02-28T04:57:08;45.25;;;20.98;;
67696;SDS011;54486;51.442;6.778;2024-02-28T04:59:37;44.65;;;20.83;;
67696;SDS011;54486;51.442;6.778;2024-02-28T05:02:04;45.95;;;22.63;;
67696;SDS011;54486;51.442;6.778;2024-02-28T05:04:32;43.72;;;21.13;;
67696;SDS011;54486;51.442;6.778;2024-02-28T05:06:59;45.00;;;21.92;;
67696;SDS011;54486;51.442;6.778;2024-02-28T05:09:26;42.83;;;20.63;;
67696;SDS011;54486;51.442;6.778;2024-02-28T05:11:54;43.08;;;20.90;;
67696;SDS011;54486;51.442;6.778;2024-02-28T05:14:21;43.88;;;20.73;;
67696;SDS011;54486;51.442;6.778;2024-02-28T05:16:48;43.15;;;21.02;;
67696;SDS011;54486;51.442;6.778;2024-02-28T05:19:16;41.00;;;20.08;;
67696;SDS011;54486;51.442;6.778;2024-02-28T05:21:45;44.03;;;20.55;;
67696;SDS011;54486;51.442;6.778;2024-02-28T05:24:13;41.25;;;20.88;;
67696;SDS011;54486;51.442;6.778;2024-02-28T05:26:40;40.30;;;19.83;;
67696;SDS011;54486;51.442;6.778;2024-02-28T05:29:07;41.43;;;20.63;;
67696;SDS011;54486;51.442;6.778;2024-02-28T05:31:34;38.88;;;20.10;;
67696;SDS011;54486;51.442;6.778;2024-02-28T05:34:04;40.30;;;20.73;;
67696;SDS011;54486;51.442;6.778;2024-02-28T05:36:32;41.43;;;21.03;;
67696;SDS011;54486;51.442;6.778;2024-02-28T05:38:59;41.05;;;21.00;;
67696;SDS011;54486;51.442;6.778;2024-02-28T05:41:28;43.30;;;21.23;;
67696;SDS011;54486;51.442;6.778;2024-02-28T05:43:55;43.92;;;20.58;;
67696;SDS011;54486;51.442;6.778;2024-02-28T05:46:23;42.75;;;21.23;;
67696;SDS011;54486;51.442;6.778;2024-02-28T05:48:50;44.42;;;21.13;;
67696;SDS011;54486;51.442;6.778;2024-02-28T05:51:18;43.63;;;22.17;;
67696;SDS011;54486;51.442;6.778;2024-02-28T05:53:46;42.03;;;21.67;;
67696;SDS011;54486;51.442;6.778;2024-02-28T05:56:13;47.47;;;21.08;;
67696;SDS011;54486;51.442;6.778;2024-02-28T05:58:41;46.78;;;22.48;;
67696;SDS011;54486;51.442;6.778;2024-02-28T06:01:10;48.08;;;23.80;;
67696;SDS011;54486;51.442;6.778;2024-02-28T06:03:38;47.80;;;22.85;;
67696;SDS011;54486;51.442;6.778;2024-02-28T06:06:05;48.35;;;22.85;;
67696;SDS011;54486;51.442;6.778;2024-02-28T06:08:34;48.22;;;22.08;;
67696;SDS011;54486;51.442;6.778;2024-02-28T06:11:02;48.60;;;22.77;;
67696;SDS011;54486;51.442;6.778;2024-02-28T06:13:29;46.67;;;22.05;;
67696;SDS011;54486;51.442;6.778;2024-02-28T06:15:56;48.55;;;23.23;;
67696;SDS011;54486;51.442;6.778;2024-02-28T06:18:25;48.22;;;22.73;;
67696;SDS011;54486;51.442;6.778;2024-02-28T06:20:57;45.97;;;22.05;;
67696;SDS011;54486;51.442;6.778;2024-02-28T06:23:25;47.50;;;22.50;;
67696;SDS011;54486;51.442;6.778;2024-02-28T06:25:55;48.55;;;22.00;;
67696;SDS011;54486;51.442;6.778;2024-02-28T06:28:24;47.55;;;22.33;;
67696;SDS011;54486;51.442;6.778;2024-02-28T06:30:52;45.22;;;21.60;;
67696;SDS011;54486;51.442;6.778;2024-02-28T06:33:20;44.60;;;21.90;;
67696;SDS011;54486;51.442;6.778;2024-02-28T06:35:47;47.85;;;21.92;;
67696;SDS011;54486;51.442;6.778;2024-02-28T06:38:14;42.80;;;20.83;;
67696;SDS011;54486;51.442;6.778;2024-02-28T06:40:41;45.67;;;21.50;;
67696;SDS011;54486;51.442;6.778;2024-02-28T06:43:09;43.55;;;21.45;;
67696;SDS011;54486;51.442;6.778;2024-02-28T06:45:36;41.15;;;20.58;;
67696;SDS011;54486;51.442;6.778;2024-02-28T06:48:06;40.20;;;19.58;;
67696;SDS011;54486;51.442;6.778;2024-02-28T06:50:34;41.75;;;21.30;;
67696;SDS011;54486;51.442;6.778;2024-02-28T06:53:01;43.45;;;21.40;;
67696;SDS011;54486;51.442;6.778;2024-02-28T06:55:29;42.42;;;20.00;;
67696;SDS011;54486;51.442;6.778;2024-02-28T06:57:56;41.00;;;19.77;;
67696;SDS011;54486;51.442;6.778;2024-02-28T07:00:23;38.20;;;18.70;;
67696;SDS011;54486;51.442;6.778;2024-02-28T07:02:51;37.92;;;19.00;;
67696;SDS011;54486;51.442;6.778;2024-02-28T07:05:20;38.47;;;18.73;;
67696;SDS011;54486;51.442;6.778;2024-02-28T07:07:47;37.92;;;18.65;;
67696;SDS011;54486;51.442;6.778;2024-02-28T07:10:14;38.22;;;18.55;;
67696;SDS011;54486;51.442;6.778;2024-02-28T07:12:41;38.87;;;18.60;;
67696;SDS011;54486;51.442;6.778;2024-02-28T07:15:09;39.60;;;19.02;;
67696;SDS011;54486;51.442;6.778;2024-02-28T07:17:35;36.80;;;18.33;;
67696;SDS011;54486;51.442;6.778;2024-02-28T07:20:03;36.65;;;17.60;;
67696;SDS011;54486;51.442;6.778;2024-02-28T07:22:31;37.85;;;17.35;;
67696;SDS011;54486;51.442;6.778;2024-02-28T07:24:59;37.78;;;17.83;;
67696;SDS011;54486;51.442;6.778;2024-02-28T07:27:26;37.63;;;17.83;;
67696;SDS011;54486;51.442;6.778;2024-02-28T07:29:53;40.53;;;19.48;;
67696;SDS011;54486;51.442;6.778;2024-02-28T07:32:21;39.07;;;17.87;;
67696;SDS011;54486;51.442;6.778;2024-02-28T07:34:48;39.70;;;18.58;;
67696;SDS011;54486;51.442;6.778;2024-02-28T07:37:16;38.70;;;18.33;;
67696;SDS011;54486;51.442;6.778;2024-02-28T07:39:43;41.22;;;17.65;;
67696;SDS011;54486;51.442;6.778;2024-02-28T07:42:11;35.92;;;17.50;;
67696;SDS011;54486;51.442;6.778;2024-02-28T07:44:39;40.63;;;17.67;;
67696;SDS011;54486;51.442;6.778;2024-02-28T07:47:08;39.50;;;18.42;;
67696;SDS011;54486;51.442;6.778;2024-02-28T07:49:35;38.35;;;17.70;;
67696;SDS011;54486;51.442;6.778;2024-02-28T07:52:03;39.75;;;17.75;;
67696;SDS011;54486;51.442;6.778;2024-02-28T07:54:30;40.30;;;17.45;;
67696;SDS011;54486;51.442;6.778;2024-02-28T07:56:58;38.50;;;17.63;;
67696;SDS011;54486;51.442;6.778;2024-02-28T07:59:26;38.67;;;17.42;;
67696;SDS011;54486;51.442;6.778;2024-02-28T08:01:53;36.78;;;17.27;;
67696;SDS011;54486;51.442;6.778;2024-02-28T08:04:20;41.23;;;17.90;;
67696;SDS011;54486;51.442;6.778;2024-02-28T08:06:48;39.03;;;17.47;;
67696;SDS011;54486;51.442;6.778;2024-02-28T08:09:15;38.33;;;17.80;;
67696;SDS011;54486;51.442;6.778;2024-02-28T08:11:43;39.20;;;16.90;;
67696;SDS011;54486;51.442;6.778;2024-02-28T08:14:11;40.75;;;17.77;;
67696;SDS011;54486;51.442;6.778;2024-02-28T08:16:39;39.70;;;17.27;;
67696;SDS011;54486;51.442;6.778;2024-02-28T08:19:06;40.00;;;17.40;;
67696;SDS011;54486;51.442;6.778;2024-02-28T08:21:34;40.72;;;18.13;;
67696;SDS011;54486;51.442;6.778;2024-02-28T08:24:01;43.65;;;18.50;;
67696;SDS011;54486;51.442;6.778;2024-02-28T08:26:31;40.15;;;17.67;;
67696;SDS011;54486;51.442;6.778;2024-02-28T08:28:59;44.38;;;19.15;;
67696;SDS011;54486;51.442;6.778;2024-02-28T08:31:26;41.83;;;17.63;;
67696;SDS011;54486;51.442;6.778;2024-02-28T08:33:53;41.03;;;17.70;;
67696;SDS011;54486;51.442;6.778;2024-02-28T08:36:22;43.35;;;19.27;;
67696;SDS011;54486;51.442;6.778;2024-02-28T08:38:50;40.92;;;17.92;;
67696;SDS011;54486;51.442;6.778;2024-02-28T08:41:18;46.33;;;18.60;;
67696;SDS011;54486;51.442;6.778;2024-02-28T08:43:45;41.58;;;18.73;;
67696;SDS011;54486;51.442;6.778;2024-02-28T08:46:16;47.35;;;20.10;;
67696;SDS011;54486;51.442;6.778;2024-02-28T08:48:43;43.87;;;18.47;;
67696;SDS011;54486;51.442;6.778;2024-02-28T08:51:11;44.28;;;19.38;;
67696;SDS011;54486;51.442;6.778;2024-02-28T08:53:38;46.00;;;20.10;;
67696;SDS011;54486;51.442;6.778;2024-02-28T08:56:06;47.42;;;20.08;;
67696;SDS011;54486;51.442;6.778;2024-02-28T08:58:33;45.63;;;18.80;;
67696;SDS011;54486;51.442;6.778;2024-02-28T09:01:00;43.92;;;19.33;;
67696;SDS011;54486;51.442;6.778;2024-02-28T09:03:28;44.53;;;20.25;;
67696;SDS011;54486;51.442;6.778;2024-02-28T09:05:56;44.20;;;18.50;;
67696;SDS011;54486;51.442;6.778;2024-02-28T09:08:23;42.97;;;19.20;;
67696;SDS011;54486;51.442;6.778;2024-02-28T09:10:51;45.50;;;18.67;;
67696;SDS011;54486;51.442;6.778;2024-02-28T09:13:18;42.78;;;18.60;;
67696;SDS011;54486;51.442;6.778;2024-02-28T09:15:47;43.55;;;19.52;;
67696;SDS011;54486;51.442;6.778;2024-02-28T09:18:16;42.05;;;18.63;;
67696;SDS011;54486;51.442;6.778;2024-02-28T09:20:43;44.20;;;18.57;;
67696;SDS011;54486;51.442;6.778;2024-02-28T09:23:11;42.60;;;17.60;;
67696;SDS011;54486;51.442;6.778;2024-02-28T09:25:38;42.75;;;19.02;;
67696;SDS011;54486;51.442;6.778;2024-02-28T09:28:05;39.85;;;18.67;;
67696;SDS011;54486;51.442;6.778;2024-02-28T09:30:33;40.42;;;17.77;;
67696;SDS011;54486;51.442;6.778;2024-02-28T09:33:11;42.35;;;18.63;;
67696;SDS011;54486;51.442;6.778;2024-02-28T09:35:40;43.47;;;18.48;;
67696;SDS011;54486;51.442;6.778;2024-02-28T09:38:07;37.90;;;17.33;;
67696;SDS011;54486;51.442;6.778;2024-02-28T09:40:35;41.33;;;18.17;;
67696;SDS011;54486;51.442;6.778;2024-02-28T09:43:02;39.88;;;17.70;;
67696;SDS011;54486;51.442;6.778;2024-02-28T09:45:31;36.95;;;16.58;;
67696;SDS011;54486;51.442;6.778;2024-02-28T09:47:59;39.40;;;16.95;;
67696;SDS011;54486;51.442;6.778;2024-02-28T09:50:27;38.60;;;17.57;;
67696;SDS011;54486;51.442;6.778;2024-02-28T09:52:54;34.63;;;16.02;;
67696;SDS011;54486;51.442;6.778;2024-02-28T09:55:35;36.80;;;16.97;;
67696;SDS011;54486;51.442;6.778;2024-02-28T09:58:02;35.25;;;15.55;;
67696;SDS011;54486;51.442;6.778;2024-02-28T10:00:31;35.22;;;15.15;;
67696;SDS011;54486;51.442;6.778;2024-02-28T10:03:00;35.03;;;15.68;;
67696;SDS011;54486;51.442;6.778;2024-02-28T10:05:28;32.85;;;15.70;;
67696;SDS011;54486;51.442;6.778;2024-02-28T10:07:56;33.28;;;15.82;;
67696;SDS011;54486;51.442;6.778;2024-02-28T10:10:24;35.03;;;15.23;;
67696;SDS011;54486;51.442;6.778;2024-02-28T10:12:52;35.53;;;17.02;;
67696;SDS011;54486;51.442;6.778;2024-02-28T10:15:19;35.47;;;16.65;;
67696;SDS011;54486;51.442;6.778;2024-02-28T10:17:47;33.95;;;15.52;;
67696;SDS011;54486;51.442;6.778;2024-02-28T10:20:15;35.38;;;16.02;;
67696;SDS011;54486;51.442;6.778;2024-02-28T10:22:43;35.43;;;16.93;;
67696;SDS011;54486;51.442;6.778;2024-02-28T10:25:10;35.28;;;16.70;;
67696;SDS011;54486;51.442;6.778;2024-02-28T10:27:37;37.63;;;16.35;;
67696;SDS011;54486;51.442;6.778;2024-02-28T10:30:07;35.67;;;16.70;;
67696;SDS011;54486;51.442;6.778;2024-02-28T10:32:35;34.80;;;16.73;;
67696;SDS011;54486;51.442;6.778;2024-02-28T10:35:04;36.40;;;15.77;;
67696;SDS011;54486;51.442;6.778;2024-02-28T10:37:37;35.17;;;16.83;;
67696;SDS011;54486;51.442;6.778;2024-02-28T10:40:05;36.15;;;16.75;;
67696;SDS011;54486;51.442;6.778;2024-02-28T10:42:34;36.53;;;16.83;;
67696;SDS011;54486;51.442;6.778;2024-02-28T10:45:03;35.15;;;16.15;;
67696;SDS011;54486;51.442;6.778;2024-02-28T10:47:47;35.63;;;16.73;;
67696;SDS011;54486;51.442;6.778;2024-02-28T10:50:17;36.20;;;16.65;;
67696;SDS011;54486;51.442;6.778;2024-02-28T10:52:44;36.95;;;17.00;;
67696;SDS011;54486;51.442;6.778;2024-02-28T10:55:21;38.10;;;17.40;;
67696;SDS011;54486;51.442;6.778;2024-02-28T10:58:02;35.97;;;16.63;;
67696;SDS011;54486;51.442;6.778;2024-02-28T11:00:35;36.25;;;16.42;;
67696;SDS011;54486;51.442;6.778;2024-02-28T11:03:05;36.58;;;16.83;;
67696;SDS011;54486;51.442;6.778;2024-02-28T11:05:36;35.60;;;15.88;;
67696;SDS011;54486;51.442;6.778;2024-02-28T11:08:11;34.03;;;16.10;;
67696;SDS011;54486;51.442;6.778;2024-02-28T11:10:41;33.03;;;15.65;;
67696;SDS011;54486;51.442;6.778;2024-02-28T11:13:26;33.93;;;15.60;;
67696;SDS011;54486;51.442;6.778;2024-02-28T11:15:55;33.87;;;15.97;;
67696;SDS011;54486;51.442;6.778;2024-02-28T11:18:23;33.20;;;15.50;;
67696;SDS011;54486;51.442;6.778;2024-02-28T11:20:52;35.03;;;16.30;;
67696;SDS011;54486;51.442;6.778;2024-02-28T11:23:20;31.77;;;15.68;;
67696;SDS011;54486;51.442;6.778;2024-02-28T11:25:47;33.65;;;15.93;;
67696;SDS011;54486;51.442;6.778;2024-02-28T11:28:15;32.50;;;15.93;;
67696;SDS011;54486;51.442;6.778;2024-02-28T11:30:43;29.67;;;14.73;;
67696;SDS011;54486;51.442;6.778;2024-02-28T11:33:10;31.75;;;15.68;;
67696;SDS011;54486;51.442;6.778;2024-02-28T11:35:38;33.85;;;15.25;;
67696;SDS011;54486;51.442;6.778;2024-02-28T11:38:08;30.50;;;14.48;;
67696;SDS011;54486;51.442;6.778;2024-02-28T11:40:36;32.65;;;15.52;;
67696;SDS011;54486;51.442;6.778;2024-02-28T11:43:03;29.88;;;14.65;;
67696;SDS011;54486;51.442;6.778;2024-02-28T11:45:31;30.63;;;14.57;;
67696;SDS011;54486;51.442;6.778;2024-02-28T11:48:06;30.58;;;13.73;;
67696;SDS011;54486;51.442;6.778;2024-02-28T11:50:34;29.55;;;13.52;;
67696;SDS011;54486;51.442;6.778;2024-02-28T11:53:04;29.52;;;14.63;;
67696;SDS011;54486;51.442;6.778;2024-02-28T11:55:33;28.77;;;13.35;;
67696;SDS011;54486;51.442;6.778;2024-02-28T11:58:01;27.35;;;14.10;;
67696;SDS011;54486;51.442;6.778;2024-02-28T12:00:28;29.30;;;13.73;;
67696;SDS011;54486;51.442;6.778;2024-02-28T12:03:05;25.67;;;12.75;;
67696;SDS011;54486;51.442;6.778;2024-02-28T12:05:32;25.45;;;12.93;;
67696;SDS011;54486;51.442;6.778;2024-02-28T12:08:00;28.20;;;13.20;;
67696;SDS011;54486;51.442;6.778;2024-02-28T12:10:27;27.13;;;12.97;;
67696;SDS011;54486;51.442;6.778;2024-02-28T12:12:59;27.10;;;12.93;;
67696;SDS011;54486;51.442;6.778;2024-02-28T12:15:29;26.40;;;13.35;;
67696;SDS011;54486;51.442;6.778;2024-02-28T12:17:57;27.17;;;13.00;;
67696;SDS011;54486;51.442;6.778;2024-02-28T12:20:27;26.75;;;12.88;;
67696;SDS011;54486;51.442;6.778;2024-02-28T12:22:54;27.15;;;13.05;;
67696;SDS011;54486;51.442;6.778;2024-02-28T12:25:21;26.77;;;12.75;;
67696;SDS011;54486;51.442;6.778;2024-02-28T12:27:48;24.60;;;12.13;;
67696;SDS011;54486;51.442;6.778;2024-02-28T12:30:16;25.70;;;12.13;;
67696;SDS011;54486;51.442;6.778;2024-02-28T12:32:43;25.85;;;12.75;;
67696;SDS011;54486;51.442;6.778;2024-02-28T12:35:10;25.17;;;12.80;;
67696;SDS011;54486;51.442;6.778;2024-02-28T12:37:37;26.08;;;12.15;;
67696;SDS011;54486;51.442;6.778;2024-02-28T12:40:06;24.63;;;12.63;;
67696;SDS011;54486;51.442;6.778;2024-02-28T12:42:35;26.17;;;12.38;;
67696;SDS011;54486;51.442;6.778;2024-02-28T12:45:06;27.63;;;12.87;;
67696;SDS011;54486;51.442;6.778;2024-02-28T12:47:34;28.02;;;12.98;;
67696;SDS011;54486;51.442;6.778;2024-02-28T12:50:00;27.10;;;13.10;;
67696;SDS011;54486;51.442;6.778;2024-02-28T12:52:27;24.88;;;12.15;;
67696;SDS011;54486;51.442;6.778;2024-02-28T12:54:55;26.77;;;11.90;;
67696;SDS011;54486;51.442;6.778;2024-02-28T12:57:22;24.42;;;12.85;;
67696;SDS011;54486;51.442;6.778;2024-02-28T12:59:49;27.98;;;12.88;;
67696;SDS011;54486;51.442;6.778;2024-02-28T13:02:18;24.25;;;12.55;;
67696;SDS011;54486;51.442;6.778;2024-02-28T13:04:46;25.20;;;11.57;;
67696;SDS011;54486;51.442;6.778;2024-02-28T13:07:13;26.20;;;12.15;;
67696;SDS011;54486;51.442;6.778;2024-02-28T13:09:40;26.48;;;11.90;;
67696;SDS011;54486;51.442;6.778;2024-02-28T13:12:08;24.33;;;11.73;;
67696;SDS011;54486;51.442;6.778;2024-02-28T13:14:35;24.90;;;12.13;;
67696;SDS011;54486;51.442;6.778;2024-02-28T13:17:02;26.92;;;12.02;;
67696;SDS011;54486;51.442;6.778;2024-02-28T13:19:30;23.92;;;11.75;;
67696;SDS011;54486;51.442;6.778;2024-02-28T13:21:58;24.70;;;11.90;;
67696;SDS011;54486;51.442;6.778;2024-02-28T13:24:25;23.95;;;11.55;;
67696;SDS011;54486;51.442;6.778;2024-02-28T13:26:53;24.02;;;11.35;;
67696;SDS011;54486;51.442;6.778;2024-02-28T13:29:20;25.00;;;11.60;;
67696;SDS011;54486;51.442;6.778;2024-02-28T13:31:47;23.03;;;11.17;;
67696;SDS011;54486;51.442;6.778;2024-02-28T13:34:14;24.45;;;12.18;;
67696;SDS011;54486;51.442;6.778;2024-02-28T13:36:41;26.53;;;11.40;;
67696;SDS011;54486;51.442;6.778;2024-02-28T13:39:10;23.02;;;11.07;;
67696;SDS011;54486;51.442;6.778;2024-02-28T13:41:39;24.13;;;10.98;;
67696;SDS011;54486;51.442;6.778;2024-02-28T13:44:06;23.63;;;10.85;;
67696;SDS011;54486;51.442;6.778;2024-02-28T13:46:34;24.55;;;10.73;;
67696;SDS011;54486;51.442;6.778;2024-02-28T13:49:02;21.88;;;11.07;;
67696;SDS011;54486;51.442;6.778;2024-02-28T13:51:31;20.00;;;9.88;;
67696;SDS011;54486;51.442;6.778;2024-02-28T13:53:59;22.55;;;10.82;;
67696;SDS011;54486;51.442;6.778;2024-02-28T13:56:27;22.73;;;10.40;;
67696;SDS011;54486;51.442;6.778;2024-02-28T13:58:54;21.50;;;10.43;;
67696;SDS011;54486;51.442;6.778;2024-02-28T14:01:21;21.07;;;10.00;;
67696;SDS011;54486;51.442;6.778;2024-02-28T14:03:49;21.42;;;10.50;;
67696;SDS011;54486;51.442;6.778;2024-02-28T14:06:16;22.27;;;10.52;;
67696;SDS011;54486;51.442;6.778;2024-02-28T14:08:44;21.10;;;10.30;;
67696;SDS011;54486;51.442;6.778;2024-02-28T14:11:11;21.63;;;10.32;;
67696;SDS011;54486;51.442;6.778;2024-02-28T14:13:39;22.03;;;10.00;;
67696;SDS011;54486;51.442;6.778;2024-02-28T14:16:07;20.83;;;10.48;;
67696;SDS011;54486;51.442;6.778;2024-02-28T14:18:35;21.95;;;9.98;;
67696;SDS011;54486;51.442;6.778;2024-02-28T14:21:02;21.90;;;10.05;;
67696;SDS011;54486;51.442;6.778;2024-02-28T14:23:34;21.85;;;9.70;;
67696;SDS011;54486;51.442;6.778;2024-02-28T14:26:01;19.42;;;8.90;;